sensor_id;sensor_type;location;lat;lon;timestamp;pressure;altitude;pressure_sealevel;temperature;humidity
12626;BME280;6378;42.684;23.372;2023-07-13T00:00:52;95320.72;;;24.44;100.00
12626;BME280;6378;42.684;23.372;2023-07-13T00:03:18;95319.03;;;24.50;100.00
12626;BME280;6378;42.684;23.372;2023-07-13T00:05:43;95311.91;;;24.52;100.00
12626;BME280;6378;42.684;23.372;2023-07-13T00:08:09;95319.97;;;24.59;100.00
12626;BME280;6378;42.684;23.372;2023-07-13T00:10:42;95319.47;;;24.65;100.00
12626;BME280;6378;42.684;23.372;2023-07-13T00:13:08;95299.06;;;24.46;100.00
12626;BME280;6378;42.684;23.372;2023-07-13T00:15:34;95321.56;;;24.77;100.00
12626;BME280;6378;42.684;23.372;2023-07-13T00:18:00;95287.91;;;24.69;100.00
12626;BME280;6378;42.684;23.372;2023-07-13T00:20:26;95308.56;;;24.93;100.00
12626;BME280;6378;42.684;23.372;2023-07-13T00:22:52;95321.22;;;25.07;100.00
12626;BME280;6378;42.684;23.372;2023-07-13T00:25:22;95313.19;;;25.13;100.00
12626;BME280;6378;42.684;23.372;2023-07-13T00:27:50;95307.00;;;25.09;100.00
12626;BME280;6378;42.684;23.372;2023-07-13T00:30:15;95288.53;;;24.93;100.00
12626;BME280;6378;42.684;23.372;2023-07-13T00:32:41;95287.22;;;24.81;100.00
12626;BME280;6378;42.684;23.372;2023-07-13T00:35:07;95302.75;;;24.91;100.00
12626;BME280;6378;42.684;23.372;2023-07-13T00:37:32;95281.28;;;24.83;100.00
12626;BME280;6378;42.684;23.372;2023-07-13T00:39:59;95296.16;;;24.85;100.00
12626;BME280;6378;42.684;23.372;2023-07-13T00:42:24;95302.28;;;24.93;100.00
12626;BME280;6378;42.684;23.372;2023-07-13T00:47:30;95302.28;;;25.09;100.00
12626;BME280;6378;42.684;23.372;2023-07-13T00:49:55;95305.75;;;24.97;100.00
12626;BME280;6378;42.684;23.372;2023-07-13T00:52:21;95304.19;;;24.96;100.00
12626;BME280;6378;42.684;23.372;2023-07-13T00:54:46;95299.38;;;25.00;100.00
12626;BME280;6378;42.684;23.372;2023-07-13T00:57:15;95297.19;;;25.08;100.00
12626;BME280;6378;42.684;23.372;2023-07-13T00:59:43;95289.88;;;24.85;100.00
12626;BME280;6378;42.684;23.372;2023-07-13T01:02:10;95298.53;;;24.87;100.00
12626;BME280;6378;42.684;23.372;2023-07-13T01:04:36;95285.41;;;24.75;100.00
12626;BME280;6378;42.684;23.372;2023-07-13T01:07:01;95292.13;;;24.74;100.00
12626;BME280;6378;42.684;23.372;2023-07-13T01:09:27;95291.53;;;24.66;100.00
12626;BME280;6378;42.684;23.372;2023-07-13T01:11:53;95282.41;;;24.69;100.00
12626;BME280;6378;42.684;23.372;2023-07-13T01:14:18;95288.69;;;24.70;100.00
12626;BME280;6378;42.684;23.372;2023-07-13T01:16:46;95290.91;;;24.58;100.00
12626;BME280;6378;42.684;23.372;2023-07-13T01:22:04;95287.53;;;24.35;100.00
12626;BME280;6378;42.684;23.372;2023-07-13T01:24:34;95263.78;;;24.25;100.00
12626;BME280;6378;42.684;23.372;2023-07-13T01:26:59;95287.28;;;24.45;100.00
12626;BME280;6378;42.684;23.372;2023-07-13T01:29:25;95286.28;;;24.55;100.00
12626;BME280;6378;42.684;23.372;2023-07-13T01:31:50;95284.19;;;24.59;100.00
12626;BME280;6378;42.684;23.372;2023-07-13T01:34:16;95283.09;;;24.57;100.00
12626;BME280;6378;42.684;23.372;2023-07-13T01:36:42;95294.00;;;24.44;100.00
12626;BME280;6378;42.684;23.372;2023-07-13T01:39:07;95287.28;;;24.45;100.00
12626;BME280;6378;42.684;23.372;2023-07-13T01:41:32;95287.28;;;24.45;100.00
12626;BME280;6378;42.684;23.372;2023-07-13T01:43:58;95288.66;;;24.53;100.00
12626;BME280;6378;42.684;23.372;2023-07-13T01:46:23;95273.53;;;24.45;100.00
12626;BME280;6378;42.684;23.372;2023-07-13T01:48:49;95283.44;;;24.59;100.00
12626;BME280;6378;42.684;23.372;2023-07-13T01:51:15;95285.41;;;24.42;100.00
12626;BME280;6378;42.684;23.372;2023-07-13T01:53:41;95280.56;;;24.30;100.00
12626;BME280;6378;42.684;23.372;2023-07-13T01:56:06;95283.13;;;24.21;100.00
12626;BME280;6378;42.684;23.372;2023-07-13T01:58:31;95260.19;;;24.28;100.00
12626;BME280;6378;42.684;23.372;2023-07-13T02:00:57;95280.31;;;24.41;100.00
12626;BME280;6378;42.684;23.372;2023-07-13T02:03:22;95278.00;;;24.39;100.00
12626;BME280;6378;42.684;23.372;2023-07-13T02:05:48;95286.59;;;24.41;100.00
12626;BME280;6378;42.684;23.372;2023-07-13T02:08:13;95305.19;;;24.37;100.00
12626;BME280;6378;42.684;23.372;2023-07-13T02:10:38;95298.09;;;24.20;100.00
12626;BME280;6378;42.684;23.372;2023-07-13T02:13:06;95295.53;;;24.09;100.00
12626;BME280;6378;42.684;23.372;2023-07-13T02:15:32;95288.22;;;24.03;100.00
12626;BME280;6378;42.684;23.372;2023-07-13T02:17:57;95296.03;;;24.04;100.00
12626;BME280;6378;42.684;23.372;2023-07-13T02:20:24;95288.56;;;24.05;100.00
12626;BME280;6378;42.684;23.372;2023-07-13T02:22:49;95286.59;;;24.05;100.00
12626;BME280;6378;42.684;23.372;2023-07-13T02:25:15;95292.41;;;23.91;100.00
12626;BME280;6378;42.684;23.372;2023-07-13T02:27:40;95301.47;;;24.08;100.00
12626;BME280;6378;42.684;23.372;2023-07-13T02:30:06;95304.06;;;24.15;100.00
12626;BME280;6378;42.684;23.372;2023-07-13T02:32:32;95306.69;;;24.22;100.00
12626;BME280;6378;42.684;23.372;2023-07-13T02:34:59;95303.34;;;24.31;100.00
12626;BME280;6378;42.684;23.372;2023-07-13T02:37:24;95306.00;;;24.34;100.00
12626;BME280;6378;42.684;23.372;2023-07-13T02:39:50;95294.41;;;24.07;100.00
12626;BME280;6378;42.684;23.372;2023-07-13T02:42:15;95308.16;;;24.27;100.00
12626;BME280;6378;42.684;23.372;2023-07-13T02:44:40;95305.63;;;24.16;100.00
12626;BME280;6378;42.684;23.372;2023-07-13T02:47:06;95272.94;;;23.82;100.00
12626;BME280;6378;42.684;23.372;2023-07-13T02:49:32;95305.00;;;24.08;100.00
12626;BME280;6378;42.684;23.372;2023-07-13T02:51:57;95298.09;;;24.00;100.00
12626;BME280;6378;42.684;23.372;2023-07-13T02:54:22;95302.47;;;23.98;100.00
12626;BME280;6378;42.684;23.372;2023-07-13T02:56:48;95308.09;;;23.91;100.00
12626;BME280;6378;42.684;23.372;2023-07-13T02:59:14;95311.16;;;23.77;100.00
12626;BME280;6378;42.684;23.372;2023-07-13T03:01:39;95306.84;;;23.75;100.00
12626;BME280;6378;42.684;23.372;2023-07-13T03:04:06;95316.06;;;23.46;100.00
12626;BME280;6378;42.684;23.372;2023-07-13T03:06:33;95321.31;;;23.37;100.00
12626;BME280;6378;42.684;23.372;2023-07-13T03:08:58;95288.81;;;22.88;100.00
12626;BME280;6378;42.684;23.372;2023-07-13T03:11:25;95310.31;;;22.94;100.00
12626;BME280;6378;42.684;23.372;2023-07-13T03:13:51;95320.63;;;23.09;100.00
12626;BME280;6378;42.684;23.372;2023-07-13T03:16:16;95323.50;;;23.25;100.00
12626;BME280;6378;42.684;23.372;2023-07-13T03:18:42;95320.53;;;23.36;100.00
12626;BME280;6378;42.684;23.372;2023-07-13T03:21:07;95320.09;;;23.18;100.00
12626;BME280;6378;42.684;23.372;2023-07-13T03:23:33;95321.78;;;23.31;100.00
12626;BME280;6378;42.684;23.372;2023-07-13T03:26:25;95321.16;;;23.47;100.00
12626;BME280;6378;42.684;23.372;2023-07-13T03:28:50;95321.38;;;23.56;100.00
12626;BME280;6378;42.684;23.372;2023-07-13T03:31:20;95324.75;;;23.84;100.00
12626;BME280;6378;42.684;23.372;2023-07-13T03:33:46;95308.44;;;24.12;100.00
12626;BME280;6378;42.684;23.372;2023-07-13T03:36:21;95334.25;;;24.54;100.00
12626;BME280;6378;42.684;23.372;2023-07-13T03:38:59;95334.31;;;24.87;100.00
12626;BME280;6378;42.684;23.372;2023-07-13T03:41:25;95327.59;;;25.04;100.00
12626;BME280;6378;42.684;23.372;2023-07-13T03:43:51;95331.13;;;25.21;100.00
12626;BME280;6378;42.684;23.372;2023-07-13T03:46:17;95332.34;;;25.65;100.00
12626;BME280;6378;42.684;23.372;2023-07-13T03:48:45;95329.63;;;25.77;100.00
12626;BME280;6378;42.684;23.372;2023-07-13T03:51:12;95316.84;;;25.83;100.00
12626;BME280;6378;42.684;23.372;2023-07-13T03:53:41;95325.59;;;26.23;100.00
12626;BME280;6378;42.684;23.372;2023-07-13T03:56:07;95326.81;;;26.73;100.00
12626;BME280;6378;42.684;23.372;2023-07-13T03:58:33;95319.03;;;27.19;100.00
12626;BME280;6378;42.684;23.372;2023-07-13T04:01:01;95323.97;;;27.36;100.00
12626;BME280;6378;42.684;23.372;2023-07-13T04:03:28;95333.22;;;27.55;100.00
12626;BME280;6378;42.684;23.372;2023-07-13T04:05:55;95312.06;;;27.83;100.00
12626;BME280;6378;42.684;23.372;2023-07-13T04:08:29;95327.50;;;27.93;100.00
12626;BME280;6378;42.684;23.372;2023-07-13T04:10:56;95324.13;;;28.41;98.47
12626;BME280;6378;42.684;23.372;2023-07-13T04:13:22;95332.28;;;27.92;100.00
12626;BME280;6378;42.684;23.372;2023-07-13T04:15:48;95331.81;;;28.37;99.81
12626;BME280;6378;42.684;23.372;2023-07-13T04:18:14;95331.53;;;28.75;95.15
12626;BME280;6378;42.684;23.372;2023-07-13T04:20:39;95329.13;;;28.87;94.28
12626;BME280;6378;42.684;23.372;2023-07-13T04:23:05;95329.91;;;29.45;87.83
12626;BME280;6378;42.684;23.372;2023-07-13T04:25:30;95341.94;;;29.79;82.55
12626;BME280;6378;42.684;23.372;2023-07-13T04:27:56;95336.97;;;29.37;86.24
12626;BME280;6378;42.684;23.372;2023-07-13T04:30:21;95338.41;;;29.02;89.89
12626;BME280;6378;42.684;23.372;2023-07-13T04:32:47;95348.22;;;28.94;92.41
12626;BME280;6378;42.684;23.372;2023-07-13T04:35:13;95326.53;;;28.61;92.54
12626;BME280;6378;42.684;23.372;2023-07-13T04:37:40;95347.16;;;29.77;83.16
12626;BME280;6378;42.684;23.372;2023-07-13T04:40:05;95283.16;;;30.07;74.37
12626;BME280;6378;42.684;23.372;2023-07-13T04:42:31;95353.75;;;31.03;71.37
12626;BME280;6378;42.684;23.372;2023-07-13T04:44:59;95357.72;;;31.82;63.92
12626;BME280;6378;42.684;23.372;2023-07-13T04:47:25;95351.72;;;31.99;61.60
12626;BME280;6378;42.684;23.372;2023-07-13T04:49:50;95353.97;;;31.71;63.33
12626;BME280;6378;42.684;23.372;2023-07-13T04:52:16;95353.81;;;32.42;58.93
12626;BME280;6378;42.684;23.372;2023-07-13T04:54:41;95359.28;;;31.83;60.39
12626;BME280;6378;42.684;23.372;2023-07-13T04:57:07;95357.16;;;32.17;54.51
12626;BME280;6378;42.684;23.372;2023-07-13T04:59:33;95363.72;;;32.29;53.88
12626;BME280;6378;42.684;23.372;2023-07-13T05:01:59;95369.38;;;30.91;63.07
12626;BME280;6378;42.684;23.372;2023-07-13T05:04:24;95366.97;;;31.41;61.46
12626;BME280;6378;42.684;23.372;2023-07-13T05:06:50;95364.38;;;31.05;63.07
12626;BME280;6378;42.684;23.372;2023-07-13T05:09:16;95366.97;;;31.17;62.77
12626;BME280;6378;42.684;23.372;2023-07-13T05:11:42;95358.94;;;31.67;58.05
12626;BME280;6378;42.684;23.372;2023-07-13T05:14:08;95373.66;;;30.50;66.77
12626;BME280;6378;42.684;23.372;2023-07-13T05:16:35;95367.84;;;29.76;74.64
12626;BME280;6378;42.684;23.372;2023-07-13T05:19:01;95360.06;;;30.62;68.53
12626;BME280;6378;42.684;23.372;2023-07-13T05:21:27;95381.44;;;30.79;69.80
12626;BME280;6378;42.684;23.372;2023-07-13T05:23:52;95357.41;;;31.66;63.17
12626;BME280;6378;42.684;23.372;2023-07-13T05:26:18;95377.34;;;32.27;58.60
12626;BME280;6378;42.684;23.372;2023-07-13T05:28:44;95380.50;;;31.81;59.74
12626;BME280;6378;42.684;23.372;2023-07-13T05:31:10;95381.81;;;31.38;62.56
12626;BME280;6378;42.684;23.372;2023-07-13T05:33:35;95375.94;;;31.12;65.77
12626;BME280;6378;42.684;23.372;2023-07-13T05:36:01;95382.38;;;31.51;61.91
12626;BME280;6378;42.684;23.372;2023-07-13T05:38:27;95378.69;;;31.45;60.34
12626;BME280;6378;42.684;23.372;2023-07-13T05:40:54;95391.16;;;31.26;61.37
12626;BME280;6378;42.684;23.372;2023-07-13T05:43:21;95391.16;;;31.59;60.69
12626;BME280;6378;42.684;23.372;2023-07-13T05:45:46;95394.09;;;31.31;61.62
12626;BME280;6378;42.684;23.372;2023-07-13T05:48:12;95383.16;;;31.52;60.18
12626;BME280;6378;42.684;23.372;2023-07-13T05:50:37;95371.91;;;31.46;59.42
12626;BME280;6378;42.684;23.372;2023-07-13T05:53:03;95382.81;;;29.96;71.04
12626;BME280;6378;42.684;23.372;2023-07-13T05:55:28;95363.38;;;30.15;71.14
12626;BME280;6378;42.684;23.372;2023-07-13T05:57:54;95386.63;;;31.05;65.73
12626;BME280;6378;42.684;23.372;2023-07-13T06:00:19;95374.81;;;31.52;64.94
12626;BME280;6378;42.684;23.372;2023-07-13T06:02:45;95368.16;;;31.73;58.76
12626;BME280;6378;42.684;23.372;2023-07-13T06:05:10;95373.50;;;30.96;60.51
12626;BME280;6378;42.684;23.372;2023-07-13T06:07:36;95375.22;;;30.51;63.34
12626;BME280;6378;42.684;23.372;2023-07-13T06:10:01;95362.28;;;29.76;65.17
12626;BME280;6378;42.684;23.372;2023-07-13T06:12:27;95366.91;;;29.60;64.96
12626;BME280;6378;42.684;23.372;2023-07-13T06:14:53;95371.66;;;30.51;60.62
12626;BME280;6378;42.684;23.372;2023-07-13T06:17:18;95384.50;;;31.32;56.47
12626;BME280;6378;42.684;23.372;2023-07-13T06:19:44;95382.66;;;32.01;53.52
12626;BME280;6378;42.684;23.372;2023-07-13T06:22:09;95379.78;;;32.10;52.28
12626;BME280;6378;42.684;23.372;2023-07-13T06:24:34;95379.75;;;32.19;51.68
12626;BME280;6378;42.684;23.372;2023-07-13T06:27:00;95379.88;;;32.69;50.57
12626;BME280;6378;42.684;23.372;2023-07-13T06:29:25;95366.59;;;32.93;45.47
12626;BME280;6378;42.684;23.372;2023-07-13T06:31:51;95355.81;;;32.42;46.15
12626;BME280;6378;42.684;23.372;2023-07-13T06:34:16;95374.66;;;32.91;46.84
12626;BME280;6378;42.684;23.372;2023-07-13T06:36:41;95378.88;;;33.16;44.81
12626;BME280;6378;42.684;23.372;2023-07-13T06:39:07;95379.91;;;33.53;45.04
12626;BME280;6378;42.684;23.372;2023-07-13T06:41:33;95378.66;;;33.54;46.12
12626;BME280;6378;42.684;23.372;2023-07-13T06:43:59;95376.66;;;33.20;47.21
12626;BME280;6378;42.684;23.372;2023-07-13T06:46:25;95374.38;;;32.06;49.97
12626;BME280;6378;42.684;23.372;2023-07-13T06:48:50;95370.06;;;32.58;49.77
12626;BME280;6378;42.684;23.372;2023-07-13T06:51:16;95313.25;;;32.56;48.17
12626;BME280;6378;42.684;23.372;2023-07-13T06:53:41;95356.16;;;33.23;47.37
12626;BME280;6378;42.684;23.372;2023-07-13T06:56:09;95367.94;;;32.97;48.42
12626;BME280;6378;42.684;23.372;2023-07-13T06:58:35;95370.25;;;33.34;46.37
12626;BME280;6378;42.684;23.372;2023-07-13T07:01:00;95370.34;;;33.60;45.83
12626;BME280;6378;42.684;23.372;2023-07-13T07:03:26;95373.69;;;33.64;46.14
12626;BME280;6378;42.684;23.372;2023-07-13T07:05:51;95376.16;;;33.56;46.22
12626;BME280;6378;42.684;23.372;2023-07-13T07:08:16;95378.91;;;32.86;47.78
12626;BME280;6378;42.684;23.372;2023-07-13T07:10:42;95363.09;;;33.13;48.07
12626;BME280;6378;42.684;23.372;2023-07-13T07:13:08;95380.84;;;32.65;49.58
12626;BME280;6378;42.684;23.372;2023-07-13T07:15:34;95376.88;;;32.43;48.86
12626;BME280;6378;42.684;23.372;2023-07-13T07:18:00;95351.91;;;31.95;48.62
12626;BME280;6378;42.684;23.372;2023-07-13T07:20:25;95372.34;;;31.92;50.54
12626;BME280;6378;42.684;23.372;2023-07-13T07:22:52;95366.78;;;32.60;48.03
12626;BME280;6378;42.684;23.372;2023-07-13T07:25:17;95348.84;;;33.25;45.97
12626;BME280;6378;42.684;23.372;2023-07-13T07:27:43;95361.59;;;32.53;46.89
12626;BME280;6378;42.684;23.372;2023-07-13T07:30:10;95363.94;;;32.69;46.89
12626;BME280;6378;42.684;23.372;2023-07-13T07:32:36;95373.50;;;32.39;47.32
12626;BME280;6378;42.684;23.372;2023-07-13T07:35:02;95334.00;;;32.25;47.64
12626;BME280;6378;42.684;23.372;2023-07-13T07:37:27;95354.25;;;32.11;49.72
12626;BME280;6378;42.684;23.372;2023-07-13T07:39:52;95353.22;;;32.23;49.29
12626;BME280;6378;42.684;23.372;2023-07-13T07:42:18;95333.44;;;32.51;47.78
12626;BME280;6378;42.684;23.372;2023-07-13T07:44:43;95344.13;;;32.67;46.80
12626;BME280;6378;42.684;23.372;2023-07-13T07:47:09;95346.22;;;32.72;46.20
12626;BME280;6378;42.684;23.372;2023-07-13T07:49:36;95344.69;;;32.71;47.17
12626;BME280;6378;42.684;23.372;2023-07-13T07:52:02;95343.91;;;32.41;47.07
12626;BME280;6378;42.684;23.372;2023-07-13T07:54:27;95345.69;;;32.00;48.78
12626;BME280;6378;42.684;23.372;2023-07-13T07:56:53;95321.78;;;32.08;48.58
12626;BME280;6378;42.684;23.372;2023-07-13T07:59:18;95334.03;;;32.02;48.78
12626;BME280;6378;42.684;23.372;2023-07-13T08:01:44;95333.31;;;32.89;47.68
12626;BME280;6378;42.684;23.372;2023-07-13T08:04:11;95329.78;;;32.89;45.19
12626;BME280;6378;42.684;23.372;2023-07-13T08:06:37;95312.97;;;32.54;46.25
12626;BME280;6378;42.684;23.372;2023-07-13T08:09:02;95318.66;;;32.74;45.73
12626;BME280;6378;42.684;23.372;2023-07-13T08:11:29;95316.81;;;32.42;47.42
12626;BME280;6378;42.684;23.372;2023-07-13T08:13:55;95315.94;;;32.65;46.74
12626;BME280;6378;42.684;23.372;2023-07-13T08:16:20;95320.09;;;33.04;46.04
12626;BME280;6378;42.684;23.372;2023-07-13T08:18:46;95314.31;;;32.73;46.41
12626;BME280;6378;42.684;23.372;2023-07-13T08:21:12;95284.25;;;32.97;45.33
12626;BME280;6378;42.684;23.372;2023-07-13T08:23:37;95311.34;;;33.12;45.79
12626;BME280;6378;42.684;23.372;2023-07-13T08:26:04;95312.78;;;33.22;45.02
12626;BME280;6378;42.684;23.372;2023-07-13T08:28:30;95308.16;;;33.39;43.92
12626;BME280;6378;42.684;23.372;2023-07-13T08:31:03;95307.84;;;33.72;45.25
12626;BME280;6378;42.684;23.372;2023-07-13T08:33:29;95293.03;;;33.25;44.73
12626;BME280;6378;42.684;23.372;2023-07-13T08:35:54;95300.44;;;33.14;45.49
12626;BME280;6378;42.684;23.372;2023-07-13T08:38:20;95294.91;;;32.99;45.74
12626;BME280;6378;42.684;23.372;2023-07-13T08:40:51;95292.06;;;32.93;46.40
12626;BME280;6378;42.684;23.372;2023-07-13T08:43:22;95274.06;;;33.29;45.75
12626;BME280;6378;42.684;23.372;2023-07-13T08:45:53;95290.06;;;33.95;45.62
12626;BME280;6378;42.684;23.372;2023-07-13T08:48:38;95289.13;;;34.04;44.73
12626;BME280;6378;42.684;23.372;2023-07-13T08:54:05;95278.72;;;34.04;42.88
12626;BME280;6378;42.684;23.372;2023-07-13T08:56:35;95300.03;;;34.53;42.40
12626;BME280;6378;42.684;23.372;2023-07-13T08:59:15;95279.44;;;33.99;43.17
12626;BME280;6378;42.684;23.372;2023-07-13T09:02:04;95307.34;;;34.45;41.08
12626;BME280;6378;42.684;23.372;2023-07-13T09:04:37;95297.84;;;34.11;42.17
12626;BME280;6378;42.684;23.372;2023-07-13T09:12:24;95327.34;;;34.38;41.01
12626;BME280;6378;42.684;23.372;2023-07-13T09:14:54;95314.31;;;34.61;42.83
12626;BME280;6378;42.684;23.372;2023-07-13T09:17:27;95326.69;;;34.80;41.26
12626;BME280;6378;42.684;23.372;2023-07-13T09:20:03;95326.50;;;34.84;44.74
12626;BME280;6378;42.684;23.372;2023-07-13T09:22:34;95316.53;;;34.51;43.24
12626;BME280;6378;42.684;23.372;2023-07-13T09:27:55;95317.84;;;34.56;39.92
12626;BME280;6378;42.684;23.372;2023-07-13T09:30:27;95323.22;;;34.91;42.67
12626;BME280;6378;42.684;23.372;2023-07-13T09:32:55;95320.06;;;35.51;40.48
12626;BME280;6378;42.684;23.372;2023-07-13T09:35:26;95314.59;;;35.85;41.13
12626;BME280;6378;42.684;23.372;2023-07-13T09:38:20;95310.75;;;35.23;39.87
12626;BME280;6378;42.684;23.372;2023-07-13T09:43:22;95316.75;;;34.73;39.27
12626;BME280;6378;42.684;23.372;2023-07-13T09:45:47;95306.94;;;35.26;38.91
12626;BME280;6378;42.684;23.372;2023-07-13T09:48:15;95282.06;;;34.60;38.77
12626;BME280;6378;42.684;23.372;2023-07-13T09:50:41;95295.00;;;35.31;37.73
12626;BME280;6378;42.684;23.372;2023-07-13T09:53:19;95292.13;;;35.68;38.42
12626;BME280;6378;42.684;23.372;2023-07-13T09:55:46;95279.22;;;35.93;38.74
12626;BME280;6378;42.684;23.372;2023-07-13T09:58:23;95278.22;;;35.96;38.54
12626;BME280;6378;42.684;23.372;2023-07-13T10:00:58;95283.59;;;35.40;37.75
12626;BME280;6378;42.684;23.372;2023-07-13T10:03:27;95279.16;;;35.71;37.70
12626;BME280;6378;42.684;23.372;2023-07-13T10:05:53;95264.22;;;35.96;37.00
12626;BME280;6378;42.684;23.372;2023-07-13T10:08:24;95273.81;;;35.19;39.01
12626;BME280;6378;42.684;23.372;2023-07-13T10:11:11;95272.34;;;35.29;38.22
12626;BME280;6378;42.684;23.372;2023-07-13T10:13:41;95265.41;;;35.19;39.02
12626;BME280;6378;42.684;23.372;2023-07-13T10:16:08;95261.03;;;35.07;38.83
12626;BME280;6378;42.684;23.372;2023-07-13T10:18:41;95274.00;;;35.10;38.34
12626;BME280;6378;42.684;23.372;2023-07-13T10:21:16;95275.72;;;34.96;39.83
12626;BME280;6378;42.684;23.372;2023-07-13T10:23:45;95268.56;;;34.95;38.66
12626;BME280;6378;42.684;23.372;2023-07-13T10:26:25;95259.91;;;35.36;39.64
12626;BME280;6378;42.684;23.372;2023-07-13T10:28:54;95241.88;;;35.42;37.93
12626;BME280;6378;42.684;23.372;2023-07-13T10:31:22;95259.44;;;35.48;38.74
12626;BME280;6378;42.684;23.372;2023-07-13T10:33:49;95250.88;;;35.15;39.45
12626;BME280;6378;42.684;23.372;2023-07-13T10:36:28;95245.25;;;35.04;38.94
12626;BME280;6378;42.684;23.372;2023-07-13T10:38:56;95243.09;;;35.30;39.70
12626;BME280;6378;42.684;23.372;2023-07-13T10:41:24;95229.69;;;35.56;39.13
12626;BME280;6378;42.684;23.372;2023-07-13T10:43:52;95236.69;;;35.89;36.48
12626;BME280;6378;42.684;23.372;2023-07-13T10:46:22;95238.53;;;36.20;33.93
12626;BME280;6378;42.684;23.372;2023-07-13T10:48:51;95235.22;;;36.43;35.02
12626;BME280;6378;42.684;23.372;2023-07-13T10:51:18;95222.72;;;36.33;29.14
12626;BME280;6378;42.684;23.372;2023-07-13T10:53:47;95220.44;;;36.43;29.42
12626;BME280;6378;42.684;23.372;2023-07-13T10:56:28;95197.75;;;36.24;27.98
12626;BME280;6378;42.684;23.372;2023-07-13T10:59:24;95213.53;;;36.83;29.85
12626;BME280;6378;42.684;23.372;2023-07-13T11:04:18;95212.53;;;36.69;25.82
12626;BME280;6378;42.684;23.372;2023-07-13T11:06:47;95176.06;;;36.53;27.64
12626;BME280;6378;42.684;23.372;2023-07-13T11:11:58;95195.19;;;36.60;27.66
12626;BME280;6378;42.684;23.372;2023-07-13T11:14:36;95189.78;;;36.89;27.01
12626;BME280;6378;42.684;23.372;2023-07-13T11:17:36;95189.03;;;36.89;26.45
12626;BME280;6378;42.684;23.372;2023-07-13T11:20:22;95184.13;;;37.01;25.26
12626;BME280;6378;42.684;23.372;2023-07-13T11:25:41;95191.53;;;36.98;26.77
12626;BME280;6378;42.684;23.372;2023-07-13T11:30:41;95180.41;;;36.65;26.66
12626;BME280;6378;42.684;23.372;2023-07-13T11:33:16;95176.75;;;36.92;25.57
12626;BME280;6378;42.684;23.372;2023-07-13T11:35:51;95182.41;;;36.81;26.59
12626;BME280;6378;42.684;23.372;2023-07-13T11:38:19;95174.97;;;36.95;26.03
12626;BME280;6378;42.684;23.372;2023-07-13T11:40:47;95175.19;;;37.13;26.12
12626;BME280;6378;42.684;23.372;2023-07-13T11:43:14;95169.78;;;37.21;26.82
12626;BME280;6378;42.684;23.372;2023-07-13T11:45:42;95163.34;;;37.31;26.43
12626;BME280;6378;42.684;23.372;2023-07-13T11:48:21;95168.94;;;37.37;26.50
12626;BME280;6378;42.684;23.372;2023-07-13T11:53:23;95163.34;;;37.37;26.97
12626;BME280;6378;42.684;23.372;2023-07-13T11:55:50;95161.06;;;37.30;27.38
12626;BME280;6378;42.684;23.372;2023-07-13T11:58:20;95154.72;;;37.24;28.30
12626;BME280;6378;42.684;23.372;2023-07-13T12:00:47;95159.88;;;37.03;27.16
12626;BME280;6378;42.684;23.372;2023-07-13T12:03:18;95145.41;;;36.88;27.75
12626;BME280;6378;42.684;23.372;2023-07-13T12:06:03;95149.75;;;36.89;28.11
12626;BME280;6378;42.684;23.372;2023-07-13T12:08:31;95141.81;;;36.87;27.82
12626;BME280;6378;42.684;23.372;2023-07-13T12:11:05;95141.81;;;36.93;28.77
12626;BME280;6378;42.684;23.372;2023-07-13T12:13:37;95132.94;;;36.72;28.64
12626;BME280;6378;42.684;23.372;2023-07-13T12:16:11;95134.97;;;36.83;28.60
12626;BME280;6378;42.684;23.372;2023-07-13T12:18:37;95131.44;;;36.60;28.65
12626;BME280;6378;42.684;23.372;2023-07-13T12:21:04;95119.66;;;36.78;27.81
12626;BME280;6378;42.684;23.372;2023-07-13T12:23:34;95110.78;;;36.74;28.38
12626;BME280;6378;42.684;23.372;2023-07-13T12:26:05;95110.75;;;36.80;28.18
12626;BME280;6378;42.684;23.372;2023-07-13T12:28:43;95108.94;;;36.82;27.85
12626;BME280;6378;42.684;23.372;2023-07-13T12:31:24;95111.22;;;36.89;28.15
12626;BME280;6378;42.684;23.372;2023-07-13T12:34:14;95107.69;;;36.78;27.91
12626;BME280;6378;42.684;23.372;2023-07-13T12:37:08;95101.63;;;36.63;27.22
12626;BME280;6378;42.684;23.372;2023-07-13T12:39:55;95092.38;;;36.79;28.16
12626;BME280;6378;42.684;23.372;2023-07-13T12:42:31;95093.09;;;36.90;27.39
12626;BME280;6378;42.684;23.372;2023-07-13T12:48:21;95085.78;;;36.71;27.30
12626;BME280;6378;42.684;23.372;2023-07-13T12:51:00;95077.13;;;36.63;27.18
12626;BME280;6378;42.684;23.372;2023-07-13T12:53:30;95069.75;;;36.55;28.25
12626;BME280;6378;42.684;23.372;2023-07-13T12:56:18;95074.28;;;36.74;28.43
12626;BME280;6378;42.684;23.372;2023-07-13T12:58:45;95080.63;;;36.80;27.34
12626;BME280;6378;42.684;23.372;2023-07-13T13:01:14;95069.13;;;36.89;27.89
12626;BME280;6378;42.684;23.372;2023-07-13T13:03:53;95067.38;;;36.75;27.13
12626;BME280;6378;42.684;23.372;2023-07-13T13:06:58;95063.06;;;36.80;27.02
12626;BME280;6378;42.684;23.372;2023-07-13T13:09:45;95051.31;;;36.76;27.31
12626;BME280;6378;42.684;23.372;2023-07-13T13:12:15;95046.63;;;36.95;29.16
12626;BME280;6378;42.684;23.372;2023-07-13T13:14:42;95054.22;;;37.11;30.11
12626;BME280;6378;42.684;23.372;2023-07-13T13:17:37;95055.13;;;37.30;29.83
12626;BME280;6378;42.684;23.372;2023-07-13T13:20:20;95053.41;;;37.22;29.60
12626;BME280;6378;42.684;23.372;2023-07-13T13:22:46;95049.31;;;37.23;29.06
12626;BME280;6378;42.684;23.372;2023-07-13T13:25:13;95055.50;;;37.05;28.35
12626;BME280;6378;42.684;23.372;2023-07-13T13:27:41;95053.69;;;37.18;29.42
12626;BME280;6378;42.684;23.372;2023-07-13T13:30:14;95062.75;;;37.36;29.64
12626;BME280;6378;42.684;23.372;2023-07-13T13:32:42;95049.56;;;37.19;26.82
12626;BME280;6378;42.684;23.372;2023-07-13T13:35:18;95050.16;;;37.01;27.30
12626;BME280;6378;42.684;23.372;2023-07-13T13:37:44;95029.25;;;37.02;27.47
12626;BME280;6378;42.684;23.372;2023-07-13T13:40:18;95047.84;;;37.11;27.66